createdAt,value
2019-04-05T00:01:09.399Z,29.70
2019-04-05T00:03:47.976Z,27.10
2019-04-05T00:06:18.375Z,29.20
2019-04-05T00:11:36.938Z,27.60
2019-04-05T00:14:21.720Z,27.70
2019-04-05T00:16:50.901Z,26.40
2019-04-05T00:19:20.143Z,27.87
2019-04-05T00:21:50.052Z,27.33
2019-04-05T00:24:20.111Z,28.53
2019-04-05T00:26:50.332Z,31.40
2019-04-05T00:29:21.359Z,27.83
2019-04-05T00:31:50.630Z,31.00
2019-04-05T00:34:20.507Z,31.07
2019-04-05T00:36:50.384Z,33.07
2019-04-05T00:39:21.463Z,30.30
2019-04-05T00:41:53.193Z,29.63
2019-04-05T00:44:27.238Z,29.93
2019-04-05T00:46:58.304Z,28.83
2019-04-05T00:49:30.977Z,30.03
2019-04-05T00:52:00.663Z,29.77
2019-04-05T00:54:29.838Z,31.77
2019-04-05T00:57:00.376Z,31.40
2019-04-05T00:59:31.151Z,33.33
2019-04-05T01:02:01.429Z,32.13
2019-04-05T01:04:33.932Z,33.13
2019-04-05T01:07:03.499Z,33.10
2019-04-05T01:09:34.050Z,31.77
2019-04-05T01:12:03.265Z,33.30
2019-04-05T01:14:34.468Z,31.33
2019-04-05T01:17:06.943Z,34.33
2019-04-05T01:19:39.584Z,33.20
2019-04-05T01:22:10.992Z,32.90
2019-04-05T01:24:41.778Z,32.43
2019-04-05T01:27:21.332Z,33.63
2019-04-05T01:29:52.652Z,32.27
2019-04-05T01:32:23.266Z,31.97
2019-04-05T01:34:56.451Z,29.90
2019-04-05T01:37:25.727Z,31.67
2019-04-05T01:39:56.895Z,34.23
2019-04-05T01:42:28.865Z,32.83
2019-04-05T01:45:00.065Z,33.90
2019-04-05T01:47:30.564Z,32.80
2019-04-05T01:50:00.805Z,32.67
2019-04-05T01:52:33.579Z,30.67
2019-04-05T01:55:08.579Z,30.17
2019-04-05T01:57:40.426Z,32.03
2019-04-05T02:00:12.623Z,30.50
2019-04-05T02:02:44.013Z,30.30
2019-04-05T02:05:15.443Z,29.60
2019-04-05T02:07:45.846Z,27.17
2019-04-05T02:10:25.840Z,28.17
2019-04-05T02:12:58.353Z,28.70
2019-04-05T02:15:28.131Z,27.70
2019-04-05T02:18:02.709Z,29.27
2019-04-05T02:20:31.954Z,29.93
2019-04-05T02:23:02.221Z,30.13
2019-04-05T02:25:32.353Z,29.30
2019-04-05T02:28:03.882Z,28.20
2019-04-05T02:30:36.929Z,29.90
2019-04-05T02:33:10.143Z,27.07
2019-04-05T02:35:40.598Z,27.77
2019-04-05T02:38:11.796Z,28.57
2019-04-05T02:40:41.355Z,29.90
2019-04-05T02:43:11.094Z,29.23
2019-04-05T02:45:40.658Z,26.67
2019-04-05T02:48:10.283Z,27.73
2019-04-05T02:50:42.772Z,28.40
2019-04-05T02:53:13.254Z,25.67
2019-04-05T02:55:47.524Z,27.13
2019-04-05T02:58:19.192Z,29.57
2019-04-05T03:00:49.440Z,29.07
2019-04-05T03:03:20.544Z,27.03
2019-04-05T03:05:55.029Z,26.73
2019-04-05T03:08:29.330Z,26.73
2019-04-05T03:11:10.278Z,25.40
2019-04-05T03:13:44.416Z,27.90
2019-04-05T03:16:20.992Z,27.83
2019-04-05T03:19:06.032Z,27.47
2019-04-05T03:21:39.882Z,28.53
2019-04-05T03:24:22.643Z,27.67
2019-04-05T03:27:05.495Z,28.03
2019-04-05T03:29:36.521Z,27.63
2019-04-05T03:32:05.780Z,30.67
2019-04-05T03:34:36.816Z,28.83
2019-04-05T03:37:07.323Z,28.50
2019-04-05T03:39:43.786Z,28.83
2019-04-05T03:42:15.324Z,27.33
2019-04-05T03:44:48.870Z,29.60
2019-04-05T03:47:18.348Z,30.37
2019-04-05T03:49:49.250Z,28.30
2019-04-05T03:52:25.568Z,29.00
2019-04-05T03:55:01.935Z,29.93
2019-04-05T03:57:36.346Z,30.90
2019-04-05T04:00:07.519Z,29.43
2019-04-05T04:02:39.796Z,28.73
2019-04-05T04:05:09.034Z,26.13
2019-04-05T04:07:46.525Z,27.87
2019-04-05T04:10:19.203Z,30.10
2019-04-05T04:12:49.070Z,28.93
2019-04-05T04:15:19.989Z,28.40
2019-04-05T04:17:51.444Z,29.53
2019-04-05T04:20:47.073Z,27.80
2019-04-05T04:23:19.247Z,27.53
2019-04-05T04:25:52.129Z,29.63
2019-04-05T04:28:27.964Z,29.93
2019-04-05T04:31:00.791Z,29.30
2019-04-05T04:33:30.002Z,30.90
2019-04-05T04:36:00.213Z,31.00
2019-04-05T04:38:31.253Z,30.90
2019-04-05T04:41:01.133Z,28.60
2019-04-05T04:43:34.101Z,30.30
2019-04-05T04:46:04.508Z,31.57
2019-04-05T04:48:37.687Z,29.30
2019-04-05T04:51:07.024Z,29.57
2019-04-05T04:53:37.635Z,29.20
2019-04-05T04:56:12.889Z,29.73
2019-04-05T04:58:42.512Z,30.77
2019-04-05T05:01:20.424Z,31.13
2019-04-05T05:03:57.352Z,30.77
2019-04-05T05:06:29.088Z,30.67
2019-04-05T05:09:03.890Z,30.40
2019-04-05T05:11:36.491Z,28.33
2019-04-05T05:14:09.243Z,28.60
2019-04-05T05:16:45.772Z,26.30
2019-04-05T05:19:18.561Z,27.57
2019-04-05T05:21:48.226Z,27.67
2019-04-05T05:24:35.986Z,28.00
2019-04-05T05:27:05.227Z,27.23
2019-04-05T05:29:34.355Z,30.13
2019-04-05T05:32:03.494Z,31.23
2019-04-05T05:34:32.725Z,31.23
2019-04-05T05:37:01.898Z,32.37
2019-04-05T05:39:31.103Z,29.60
2019-04-05T05:42:00.268Z,30.00
2019-04-05T05:47:52.097Z,30.63
2019-04-05T05:50:19.703Z,30.80
2019-04-05T05:52:49.883Z,32.73
2019-04-05T05:55:19.202Z,30.90
2019-04-05T05:57:48.354Z,32.47
2019-04-05T06:00:19.073Z,32.70
2019-04-05T06:02:48.687Z,33.00
2019-04-05T06:05:18.113Z,32.90
2019-04-05T06:07:47.327Z,32.13
2019-04-05T06:10:16.544Z,31.57
2019-04-05T06:12:45.818Z,30.77
2019-04-05T06:15:15.163Z,30.63
2019-04-05T06:17:44.323Z,32.80
2019-04-05T06:20:15.211Z,31.53
2019-04-05T06:22:49.469Z,32.03
2019-04-05T06:25:18.781Z,32.23
2019-04-05T06:27:48.070Z,30.33
2019-04-05T06:30:17.513Z,31.00
2019-04-05T06:32:51.060Z,31.67
2019-04-05T06:35:20.250Z,32.07
2019-04-05T06:37:49.521Z,31.97
2019-04-05T06:40:18.836Z,31.83
2019-04-05T06:42:48.034Z,31.67
2019-04-05T06:45:17.215Z,31.70
2019-04-05T06:47:46.402Z,32.20
2019-04-05T06:50:15.567Z,33.83
2019-04-05T06:52:44.742Z,30.50
2019-04-05T06:55:13.903Z,33.10
2019-04-05T06:57:43.073Z,30.83
2019-04-05T07:00:12.307Z,30.90
2019-04-05T07:02:41.566Z,30.03
2019-04-05T07:05:11.285Z,31.07
2019-04-05T07:07:40.819Z,30.40
2019-04-05T07:10:10.047Z,30.10
2019-04-05T07:12:39.206Z,28.63
2019-04-05T07:15:09.459Z,29.40
2019-04-05T07:17:38.687Z,28.53
2019-04-05T07:20:07.847Z,27.10
2019-04-05T07:22:39.337Z,27.67
2019-04-05T07:25:08.100Z,27.63
2019-04-05T07:27:37.323Z,27.47
2019-04-05T07:30:06.638Z,26.43
2019-04-05T07:32:35.833Z,30.07
2019-04-05T07:35:07.192Z,26.87
2019-04-05T07:37:36.405Z,27.47
2019-04-05T07:40:05.994Z,26.43
2019-04-05T07:42:35.279Z,27.53
2019-04-05T07:45:05.360Z,26.50
2019-04-05T07:47:34.502Z,27.90
2019-04-05T07:50:03.965Z,26.93
2019-04-05T07:52:33.246Z,27.80
2019-04-05T07:55:02.387Z,25.77
2019-04-05T07:57:31.586Z,26.17
2019-04-05T08:00:00.901Z,25.87
2019-04-05T08:02:30.090Z,24.30
2019-04-05T08:04:59.384Z,24.63
2019-04-05T08:07:31.738Z,24.00
2019-04-05T08:10:02.995Z,26.23
2019-04-05T08:12:32.199Z,26.40
2019-04-05T08:15:02.348Z,24.57
2019-04-05T08:17:31.566Z,24.67
2019-04-05T08:20:01.068Z,24.37
2019-04-05T08:22:32.313Z,23.73
2019-04-05T08:25:01.178Z,23.77
2019-04-05T08:27:33.606Z,23.57
2019-04-05T08:30:05.530Z,22.90
2019-04-05T08:32:34.758Z,22.67
2019-04-05T08:35:04.044Z,20.93
2019-04-05T08:37:33.233Z,22.23
2019-04-05T08:40:02.390Z,19.60
2019-04-05T08:42:31.590Z,19.33
2019-04-05T08:45:00.689Z,18.33
2019-04-05T08:47:29.902Z,18.83
2019-04-05T08:49:59.076Z,17.40
2019-04-05T08:52:28.246Z,17.40
2019-04-05T08:54:57.583Z,16.67
2019-04-05T08:57:26.709Z,15.30
2019-04-05T08:59:55.850Z,13.47
2019-04-05T09:02:25.033Z,12.20
2019-04-05T09:04:54.262Z,14.07
2019-04-05T09:07:23.514Z,12.63
2019-04-05T09:09:52.659Z,12.93
2019-04-05T09:12:21.860Z,11.03
2019-04-05T09:14:51.287Z,10.80
2019-04-05T09:17:20.474Z,12.47
2019-04-05T09:19:49.811Z,10.33
2019-04-05T09:22:18.977Z,10.73
2019-04-05T09:24:48.206Z,11.50
2019-04-05T09:27:17.478Z,10.43
2019-04-05T09:29:46.680Z,9.73
2019-04-05T09:32:15.866Z,10.57
2019-04-05T09:34:45.071Z,10.17
2019-04-05T09:37:14.203Z,9.23
2019-04-05T09:39:43.350Z,11.07
2019-04-05T09:42:12.807Z,10.27
2019-04-05T09:44:41.999Z,10.47
2019-04-05T09:47:11.220Z,10.77
2019-04-05T09:49:40.581Z,9.50
2019-04-05T09:52:09.765Z,10.27
2019-04-05T09:54:39.327Z,9.33
2019-04-05T09:57:08.667Z,8.47
2019-04-05T09:59:39.664Z,9.30
2019-04-05T10:02:09.147Z,8.17
2019-04-05T10:04:38.527Z,8.73
2019-04-05T10:07:08.310Z,8.57
2019-04-05T10:09:40.098Z,8.33
2019-04-05T10:12:09.688Z,8.37
2019-04-05T10:14:38.996Z,9.20
2019-04-05T10:17:08.440Z,8.57
2019-04-05T10:19:49.240Z,8.97
2019-04-05T10:22:08.801Z,8.30
2019-04-05T10:24:38.105Z,8.90
2019-04-05T10:27:07.497Z,9.43
2019-04-05T10:29:36.768Z,9.47
2019-04-05T10:32:06.090Z,9.00
2019-04-05T10:34:35.289Z,6.83
2019-04-05T10:37:06.512Z,7.53
2019-04-05T10:39:35.810Z,8.40
2019-04-05T10:42:06.384Z,8.67
2019-04-05T10:44:36.114Z,7.70
2019-04-05T10:47:06.596Z,7.80
2019-04-05T10:49:36.065Z,8.87
2019-04-05T10:52:05.906Z,7.93
2019-04-05T10:54:35.178Z,9.23
2019-04-05T10:57:04.458Z,9.93
2019-04-05T10:59:33.890Z,10.37
2019-04-05T11:02:03.074Z,10.13
2019-04-05T11:04:35.905Z,10.27
2019-04-05T11:07:08.598Z,8.33
2019-04-05T11:09:42.974Z,8.67
2019-04-05T11:12:15.891Z,8.97
2019-04-05T11:14:46.281Z,8.63
2019-04-05T11:17:17.313Z,9.30
2019-04-05T11:19:50.401Z,8.47
2019-04-05T11:22:21.397Z,8.87
2019-04-05T11:24:51.351Z,7.60
2019-04-05T11:27:20.598Z,7.20
2019-04-05T11:29:54.079Z,7.77
2019-04-05T11:32:26.479Z,6.90
2019-04-05T11:34:57.885Z,7.60
2019-04-05T11:37:33.145Z,7.37
2019-04-05T11:40:03.425Z,7.40
2019-04-05T11:42:34.387Z,7.47
2019-04-05T11:45:09.218Z,7.33
2019-04-05T11:47:39.065Z,6.70
2019-04-05T11:50:34.012Z,6.97
2019-04-05T11:52:54.820Z,7.20
2019-04-05T11:55:25.223Z,6.97
2019-04-05T11:57:55.381Z,7.47
2019-04-05T12:00:49.093Z,8.07
2019-04-05T12:03:19.588Z,7.40
2019-04-05T12:05:48.841Z,8.30
2019-04-05T12:08:18.139Z,8.13
2019-04-05T12:10:52.385Z,7.90
2019-04-05T12:13:23.567Z,10.60
2019-04-05T12:15:58.269Z,8.70
2019-04-05T12:18:27.715Z,8.07
2019-04-05T12:21:05.068Z,8.50
2019-04-05T12:23:42.868Z,7.67
2019-04-05T12:26:23.741Z,8.17
2019-04-05T12:28:56.927Z,8.37
2019-04-05T12:31:29.981Z,8.33
2019-04-05T12:34:03.740Z,7.97
2019-04-05T12:36:40.845Z,8.17
2019-04-05T12:39:13.483Z,7.87
2019-04-05T12:41:45.051Z,8.40
2019-04-05T12:44:15.628Z,7.80
2019-04-05T12:46:45.872Z,8.80
2019-04-05T12:49:19.715Z,8.57
2019-04-05T12:52:21.786Z,8.70
2019-04-05T12:54:45.412Z,8.47
2019-04-05T12:57:19.060Z,8.53
2019-04-05T12:59:57.824Z,9.03
2019-04-05T13:02:33.445Z,8.50
2019-04-05T13:04:58.839Z,9.80
2019-04-05T13:07:31.534Z,9.03
2019-04-05T13:10:01.642Z,8.90
2019-04-05T13:12:30.873Z,7.97
2019-04-05T13:15:11.725Z,8.93
2019-04-05T13:17:35.153Z,9.13
2019-04-05T13:20:04.627Z,8.53
2019-04-05T13:22:37.537Z,9.00
2019-04-05T13:25:11.584Z,8.23
2019-04-05T13:27:44.026Z,9.03
2019-04-05T13:30:13.182Z,8.20
2019-04-05T13:32:45.230Z,7.47
2019-04-05T13:35:16.796Z,8.53
2019-04-05T13:37:46.668Z,8.33
2019-04-05T13:40:16.154Z,9.07
2019-04-05T13:42:49.155Z,8.50
2019-04-05T13:45:20.745Z,9.00
2019-04-05T13:47:50.836Z,7.80
2019-04-05T13:50:24.082Z,8.13
2019-04-05T13:52:55.631Z,7.70
2019-04-05T13:55:32.223Z,8.13
2019-04-05T13:58:03.179Z,8.83
2019-04-05T14:00:32.358Z,8.20
2019-04-05T14:03:01.555Z,10.00
2019-04-05T14:05:30.797Z,9.43
2019-04-05T14:08:09.938Z,9.67
2019-04-05T14:10:30.855Z,9.63
2019-04-05T14:13:00.030Z,9.30
2019-04-05T14:15:31.364Z,9.60
2019-04-05T14:18:00.345Z,9.73
2019-04-05T14:20:29.599Z,9.77
2019-04-05T14:22:58.818Z,10.30
2019-04-05T14:25:30.096Z,9.07
2019-04-05T14:27:59.040Z,10.27
2019-04-05T14:30:32.465Z,10.10
2019-04-05T14:33:00.747Z,10.13
2019-04-05T14:35:29.903Z,10.20
2019-04-05T14:37:59.104Z,9.87
2019-04-05T14:40:29.382Z,10.07
2019-04-05T14:42:59.580Z,9.97
2019-04-05T14:45:30.906Z,9.00
2019-04-05T14:48:00.251Z,9.40
2019-04-05T14:50:29.545Z,9.53
2019-04-05T14:53:01.871Z,9.03
2019-04-05T14:55:31.342Z,9.93
2019-04-05T14:58:00.576Z,9.67
2019-04-05T15:00:29.753Z,9.07
2019-04-05T15:02:59.106Z,9.57
2019-04-05T15:05:28.428Z,9.00
2019-04-05T15:07:57.675Z,9.60
2019-04-05T15:10:26.854Z,9.43
2019-04-05T15:12:56.292Z,8.53
2019-04-05T15:15:25.529Z,9.50
2019-04-05T15:17:54.713Z,9.13
2019-04-05T15:20:24.051Z,8.57
2019-04-05T15:22:53.299Z,8.50
2019-04-05T15:25:22.545Z,9.30
2019-04-05T15:27:55.384Z,10.10
2019-04-05T15:30:25.508Z,8.70
2019-04-05T15:32:57.613Z,8.40
2019-04-05T15:35:26.473Z,9.97
2019-04-05T15:37:55.768Z,8.60
2019-04-05T15:40:24.980Z,8.33
2019-04-05T15:42:54.304Z,8.70
2019-04-05T15:45:23.884Z,8.50
2019-04-05T15:47:54.225Z,8.07
2019-04-05T15:50:24.511Z,8.50
2019-04-05T15:52:53.772Z,9.10
2019-04-05T15:55:22.943Z,9.33
2019-04-05T15:57:52.285Z,8.20
2019-04-05T16:00:37.795Z,8.57
2019-04-05T16:03:07.078Z,8.93
2019-04-05T16:05:36.303Z,8.60
2019-04-05T16:08:05.943Z,8.40
2019-04-05T16:10:35.152Z,8.10
2019-04-05T16:13:08.167Z,9.33
2019-04-05T16:15:43.440Z,8.67
2019-04-05T16:18:12.650Z,8.47
2019-04-05T16:20:41.906Z,8.97
2019-04-05T16:23:11.169Z,8.40
2019-04-05T16:25:40.471Z,9.40
2019-04-05T16:28:09.810Z,8.80
2019-04-05T16:30:39.841Z,8.90
2019-04-05T16:33:09.228Z,8.90
2019-04-05T16:35:38.638Z,8.83
2019-04-05T16:38:08.817Z,8.53
2019-04-05T16:40:38.090Z,7.70
2019-04-05T16:43:07.426Z,9.67
2019-04-05T16:45:38.550Z,8.33
2019-04-05T16:48:10.031Z,9.00
2019-04-05T16:50:42.130Z,8.67
2019-04-05T16:53:10.203Z,8.03
2019-04-05T16:55:39.490Z,8.10
2019-04-05T16:58:11.070Z,7.90
2019-04-05T17:00:40.423Z,8.53
2019-04-05T17:03:09.561Z,7.23
2019-04-05T17:05:38.925Z,8.43
2019-04-05T17:08:08.399Z,8.87
2019-04-05T17:10:37.794Z,8.83
2019-04-05T17:13:07.256Z,9.27
2019-04-05T17:15:36.456Z,8.73
2019-04-05T17:18:05.687Z,8.17
2019-04-05T17:20:34.973Z,7.90
2019-04-05T17:23:04.273Z,7.70
2019-04-05T17:25:33.551Z,9.47
2019-04-05T17:28:05.164Z,8.10
2019-04-05T17:30:36.449Z,7.80
2019-04-05T17:33:11.786Z,7.47
2019-04-05T17:35:43.809Z,7.27
2019-04-05T17:38:18.602Z,6.87
2019-04-05T17:40:52.329Z,9.20
2019-04-05T17:43:24.203Z,7.63
2019-04-05T17:45:53.954Z,8.10
2019-04-05T17:48:28.581Z,7.37
2019-04-05T17:51:06.148Z,7.13
2019-04-05T17:53:38.960Z,7.87
2019-04-05T17:56:09.006Z,7.60
2019-04-05T17:58:43.497Z,6.70
2019-04-05T18:01:13.683Z,7.00
2019-04-05T18:03:43.408Z,6.13
2019-04-05T18:06:17.004Z,6.23
2019-04-05T18:08:59.727Z,5.70
2019-04-05T18:11:50.692Z,6.40
2019-04-05T18:14:23.202Z,7.00
2019-04-05T18:16:55.012Z,6.37
2019-04-05T18:19:28.298Z,6.00
2019-04-05T18:22:00.480Z,5.60
2019-04-05T18:24:29.830Z,6.53
2019-04-05T18:27:02.259Z,6.03
2019-04-05T18:29:33.998Z,6.10
2019-04-05T18:32:22.446Z,6.20
2019-04-05T18:34:53.729Z,6.00
2019-04-05T18:37:27.101Z,6.00
2019-04-05T18:39:56.774Z,6.60
2019-04-05T18:42:29.273Z,5.60
2019-04-05T18:45:01.755Z,5.20
2019-04-05T18:47:32.965Z,5.70
2019-04-05T18:50:06.741Z,5.40
2019-04-05T18:52:42.481Z,5.70
2019-04-05T18:55:13.613Z,5.57
2019-04-05T18:57:44.770Z,8.17
2019-04-05T19:00:14.096Z,11.67
2019-04-05T19:02:43.368Z,5.13
2019-04-05T19:05:19.685Z,5.77
2019-04-05T19:07:51.296Z,4.67
2019-04-05T19:10:20.839Z,5.40
2019-04-05T19:12:59.203Z,6.13
2019-04-05T19:15:32.487Z,5.23
2019-04-05T19:18:06.102Z,4.93
2019-04-05T19:20:40.164Z,4.73
2019-04-05T19:23:09.714Z,4.80
2019-04-05T19:25:42.714Z,6.77
2019-04-05T19:28:25.382Z,5.17
2019-04-05T19:49:03.190Z,4.73
2019-04-05T19:52:08.184Z,4.47
2019-04-05T19:54:53.659Z,4.97
2019-04-05T19:57:30.888Z,5.20
2019-04-05T20:00:04.419Z,4.40
2019-04-05T20:02:36.844Z,4.43
2019-04-05T20:05:07.810Z,4.60
2019-04-05T20:07:42.735Z,5.00
2019-04-05T20:10:13.859Z,4.37
2019-04-05T20:12:45.979Z,5.53
2019-04-05T20:15:23.587Z,5.00
2019-04-05T20:18:11.723Z,4.93
2019-04-05T20:20:43.962Z,5.47
2019-04-05T20:23:25.469Z,5.63
2019-04-05T20:25:58.245Z,5.30
2019-04-05T20:28:31.731Z,4.57
2019-04-05T20:31:06.959Z,5.30
2019-04-05T20:33:41.996Z,5.43
2019-04-05T20:36:16.092Z,5.80
2019-04-05T20:38:47.609Z,5.70
2019-04-05T20:41:20.390Z,6.00
2019-04-05T20:43:53.787Z,5.50
2019-04-05T20:46:25.340Z,5.00
2019-04-05T20:49:00.515Z,6.03
2019-04-05T20:51:31.070Z,5.43
2019-04-05T20:54:00.582Z,5.67
2019-04-05T20:56:40.497Z,5.23
2019-04-05T20:59:13.730Z,5.43
2019-04-05T21:01:45.356Z,5.87
2019-04-05T21:04:14.651Z,5.43
2019-04-05T21:06:50.301Z,6.03
2019-04-05T21:09:30.387Z,5.90
2019-04-05T21:12:03.274Z,5.47
2019-04-05T21:17:41.227Z,6.20
2019-04-05T21:20:18.539Z,6.27
2019-04-05T21:22:50.054Z,6.37
2019-04-05T21:25:32.927Z,5.60
2019-04-05T21:28:35.792Z,7.03
2019-04-05T21:31:08.336Z,6.27
2019-04-05T21:33:59.198Z,6.40
2019-04-05T21:36:32.017Z,6.90
2019-04-05T21:39:17.186Z,7.20
2019-04-05T21:41:55.556Z,7.03
2019-04-05T21:44:34.036Z,6.10
2019-04-05T21:47:04.339Z,7.23
2019-04-05T21:49:39.526Z,7.20
2019-04-05T21:52:12.268Z,6.03
2019-04-05T21:54:47.660Z,6.57
2019-04-05T21:57:22.711Z,6.87
2019-04-05T21:59:54.751Z,6.53
2019-04-05T22:02:26.002Z,7.23
2019-04-05T22:05:01.345Z,7.33
2019-04-05T22:07:36.001Z,7.50
2019-04-05T22:10:12.200Z,7.13
2019-04-05T22:12:46.884Z,8.03
2019-04-05T22:15:17.960Z,7.50
2019-04-05T22:17:50.547Z,8.30
2019-04-05T22:20:26.094Z,7.63
2019-04-05T22:23:02.684Z,8.90
2019-04-05T22:25:36.672Z,7.43
2019-04-05T22:28:09.526Z,8.50
2019-04-05T22:30:46.363Z,8.33
2019-04-05T22:33:23.479Z,9.20
2019-04-05T22:35:54.699Z,8.30
2019-04-05T22:38:24.954Z,9.10
2019-04-05T22:41:12.703Z,8.40
2019-04-05T22:43:42.401Z,8.47
2019-04-05T22:46:37.402Z,8.67
2019-04-05T22:49:13.593Z,8.33
2019-04-05T22:51:50.929Z,9.57
2019-04-05T22:54:21.701Z,8.73
2019-04-05T22:56:57.978Z,8.57
2019-04-05T22:59:28.405Z,9.47
2019-04-05T23:02:00.884Z,9.77
2019-04-05T23:04:40.909Z,10.10
2019-04-05T23:07:27.335Z,9.43
2019-04-05T23:10:06.883Z,10.13
2019-04-05T23:12:41.396Z,9.50
2019-04-05T23:15:12.167Z,9.63
2019-04-05T23:17:45.982Z,9.13
2019-04-05T23:20:18.217Z,9.93
2019-04-05T23:22:53.244Z,9.93
2019-04-05T23:25:33.426Z,10.70
2019-04-05T23:28:12.484Z,10.27
2019-04-05T23:30:46.192Z,9.93
2019-04-05T23:33:20.097Z,10.07
2019-04-05T23:35:52.466Z,9.90
2019-04-05T23:38:23.415Z,9.57
2019-04-05T23:40:57.273Z,11.33
2019-04-05T23:43:32.345Z,11.17
2019-04-05T23:46:06.127Z,11.87
2019-04-05T23:48:37.259Z,11.70
2019-04-05T23:51:22.438Z,11.53
2019-04-05T23:53:58.221Z,12.13
2019-04-05T23:56:51.877Z,12.37
2019-04-05T23:59:33.280Z,12.33
